createdAt,value
2023-02-03T00:00:40.085Z,8.30
2023-02-03T00:03:07.155Z,8.29
2023-02-03T00:05:34.415Z,8.31
2023-02-03T00:08:02.181Z,8.30
2023-02-03T00:10:28.699Z,8.30
2023-02-03T00:12:56.304Z,8.31
2023-02-03T00:15:23.352Z,8.31
2023-02-03T00:17:49.783Z,8.31
2023-02-03T00:20:16.385Z,8.31
2023-02-03T00:22:42.756Z,8.29
2023-02-03T00:25:09.509Z,8.26
2023-02-03T00:27:36.008Z,8.27
2023-02-03T00:30:02.615Z,8.31
2023-02-03T00:32:29.348Z,8.30
2023-02-03T00:34:55.781Z,8.31
2023-02-03T00:37:23.152Z,8.37
2023-02-03T00:39:50.234Z,8.38
2023-02-03T00:42:16.839Z,8.37
2023-02-03T00:44:43.287Z,8.39
2023-02-03T00:47:09.760Z,8.39
2023-02-03T00:49:36.142Z,8.39
2023-02-03T00:52:02.798Z,8.38
2023-02-03T00:54:29.219Z,8.40
2023-02-03T00:56:55.685Z,8.40
2023-02-03T00:59:22.069Z,8.41
2023-02-03T01:01:49.934Z,8.40
2023-02-03T01:04:16.379Z,8.41
2023-02-03T01:06:42.816Z,8.41
2023-02-03T01:09:09.214Z,8.40
2023-02-03T01:11:35.730Z,8.38
2023-02-03T01:14:02.129Z,8.39
2023-02-03T01:16:31.059Z,8.39
2023-02-03T01:18:57.654Z,8.41
2023-02-03T01:21:26.080Z,8.40
2023-02-03T01:23:53.391Z,8.38
2023-02-03T01:26:21.851Z,8.39
2023-02-03T01:28:56.018Z,8.37
2023-02-03T01:31:29.230Z,8.35
2023-02-03T01:33:56.970Z,8.35
2023-02-03T01:36:25.843Z,8.37
2023-02-03T01:38:53.318Z,8.36
2023-02-03T01:41:23.456Z,8.36
2023-02-03T01:43:53.113Z,8.37
2023-02-03T01:46:25.288Z,8.34
2023-02-03T01:48:59.972Z,8.33
2023-02-03T01:51:26.494Z,8.35
2023-02-03T01:53:54.004Z,8.33
2023-02-03T01:56:21.872Z,8.33
2023-02-03T01:58:50.586Z,8.32
2023-02-03T02:01:19.492Z,8.35
2023-02-03T02:03:53.064Z,8.34
2023-02-03T02:06:19.630Z,8.35
2023-02-03T02:08:52.107Z,8.34
2023-02-03T02:11:21.318Z,8.33
2023-02-03T02:13:50.542Z,8.34
2023-02-03T02:16:27.332Z,8.35
2023-02-03T02:18:53.721Z,8.34
2023-02-03T02:24:14.967Z,8.36
2023-02-03T02:26:57.036Z,8.37
2023-02-03T02:30:06.553Z,8.38
2023-02-03T02:32:41.166Z,8.38
2023-02-03T02:35:29.363Z,8.39
2023-02-03T02:38:05.201Z,8.37
2023-02-03T02:40:47.022Z,8.37
2023-02-03T02:43:23.781Z,8.40
2023-02-03T02:45:54.228Z,8.42
2023-02-03T02:48:22.944Z,8.40
2023-02-03T02:50:53.799Z,8.39
2023-02-03T02:53:24.637Z,8.39
2023-02-03T02:55:53.554Z,8.41
2023-02-03T02:58:21.706Z,8.42
2023-02-03T03:00:48.374Z,8.42
2023-02-03T03:03:16.277Z,8.43
2023-02-03T03:05:48.358Z,8.42
2023-02-03T03:08:17.348Z,8.42
2023-02-03T03:10:44.863Z,8.43
2023-02-03T03:13:19.877Z,8.47
2023-02-03T03:15:48.222Z,8.48
2023-02-03T03:18:20.034Z,8.49
2023-02-03T03:20:48.243Z,8.54
2023-02-03T03:23:24.985Z,8.55
2023-02-03T03:26:02.240Z,8.55
2023-02-03T03:28:40.356Z,8.56
2023-02-03T03:31:06.872Z,8.55
2023-02-03T03:33:33.481Z,8.57
2023-02-03T03:36:18.347Z,8.57
2023-02-03T03:38:54.564Z,8.56
2023-02-03T03:41:31.509Z,8.58
2023-02-03T03:44:03.330Z,8.61
2023-02-03T03:46:44.356Z,8.61
2023-02-03T03:49:12.767Z,8.62
2023-02-03T03:51:47.922Z,8.62
2023-02-03T03:54:22.527Z,8.63
2023-02-03T03:57:05.110Z,8.65
2023-02-03T03:59:34.336Z,8.65
2023-02-03T04:02:04.957Z,8.65
2023-02-03T04:04:34.335Z,8.66
2023-02-03T04:07:00.735Z,8.66
2023-02-03T04:09:27.167Z,8.68
2023-02-03T04:12:02.643Z,8.69
2023-02-03T04:14:35.015Z,8.71
2023-02-03T04:17:01.948Z,8.72
2023-02-03T04:19:28.368Z,8.76
2023-02-03T04:21:54.937Z,8.76
2023-02-03T04:24:21.539Z,8.76
2023-02-03T04:26:48.026Z,8.79
2023-02-03T04:29:14.411Z,8.82
2023-02-03T04:31:41.036Z,8.83
2023-02-03T04:34:07.541Z,8.84
2023-02-03T04:36:34.039Z,8.84
2023-02-03T04:39:00.435Z,8.85
2023-02-03T04:41:26.867Z,8.90
2023-02-03T04:43:53.258Z,8.93
2023-02-03T04:46:19.753Z,8.93
2023-02-03T04:48:46.158Z,8.96
2023-02-03T04:51:12.700Z,8.97
2023-02-03T04:53:39.130Z,9.01
2023-02-03T04:56:05.690Z,8.98
2023-02-03T05:01:30.898Z,9.01
2023-02-03T05:03:57.316Z,9.02
2023-02-03T05:06:28.878Z,9.01
2023-02-03T05:08:55.634Z,9.02
2023-02-03T05:11:22.598Z,9.03
2023-02-03T05:13:48.996Z,9.03
2023-02-03T05:16:15.900Z,9.02
2023-02-03T05:18:42.408Z,9.02
2023-02-03T05:21:09.046Z,9.01
2023-02-03T05:23:36.724Z,9.00
2023-02-03T05:26:03.782Z,8.98
2023-02-03T05:28:30.269Z,9.01
2023-02-03T05:31:01.495Z,9.01
2023-02-03T05:33:29.011Z,9.00
2023-02-03T05:35:55.540Z,9.00
2023-02-03T05:38:23.258Z,8.98
2023-02-03T05:41:08.680Z,9.00
2023-02-03T05:43:35.253Z,9.01
2023-02-03T05:46:02.663Z,9.00
2023-02-03T05:48:29.337Z,8.99
2023-02-03T05:50:55.888Z,9.00
2023-02-03T05:53:22.312Z,8.98
2023-02-03T05:55:48.891Z,8.97
2023-02-03T05:58:15.376Z,8.96
2023-02-03T06:00:41.746Z,8.98
2023-02-03T06:03:08.441Z,8.97
2023-02-03T06:05:35.401Z,8.96
2023-02-03T06:08:01.856Z,8.96
2023-02-03T06:10:28.651Z,8.97
2023-02-03T06:12:55.332Z,8.98
2023-02-03T06:15:21.833Z,8.96
2023-02-03T06:17:49.086Z,8.96
2023-02-03T06:20:18.886Z,8.95
2023-02-03T06:22:45.760Z,8.96
2023-02-03T06:25:14.268Z,8.96
2023-02-03T06:27:41.121Z,8.95
2023-02-03T06:30:08.461Z,8.94
2023-02-03T06:32:34.970Z,8.94
2023-02-03T06:35:01.374Z,8.94
2023-02-03T06:37:27.815Z,8.96
2023-02-03T06:39:54.205Z,8.96
2023-02-03T06:42:20.614Z,8.95
2023-02-03T06:44:46.994Z,8.93
2023-02-03T06:47:13.402Z,8.92
2023-02-03T06:49:39.840Z,8.90
2023-02-03T06:52:06.273Z,8.91
2023-02-03T06:54:33.529Z,8.91
2023-02-03T06:56:59.989Z,8.91
2023-02-03T06:59:26.409Z,8.91
2023-02-03T07:01:53.124Z,8.92
2023-02-03T07:04:19.572Z,8.92
2023-02-03T07:06:45.968Z,8.91
2023-02-03T07:09:12.789Z,8.91
2023-02-03T07:11:39.240Z,8.93
2023-02-03T07:14:05.769Z,8.94
2023-02-03T07:16:34.167Z,8.94
2023-02-03T07:19:00.556Z,8.94
2023-02-03T07:21:26.952Z,8.92
2023-02-03T07:23:53.712Z,8.94
2023-02-03T07:26:22.950Z,8.94
2023-02-03T07:28:54.519Z,8.93
2023-02-03T07:31:21.077Z,8.94
2023-02-03T07:33:48.058Z,8.94
2023-02-03T07:36:14.452Z,8.93
2023-02-03T07:38:40.845Z,8.94
2023-02-03T07:41:07.336Z,8.94
2023-02-03T07:43:33.894Z,8.93
2023-02-03T07:46:01.729Z,8.94
2023-02-03T07:48:28.252Z,8.93
2023-02-03T07:50:54.877Z,8.94
2023-02-03T07:53:21.458Z,8.95
2023-02-03T07:55:47.935Z,8.95
2023-02-03T07:58:15.056Z,8.98
2023-02-03T08:00:41.448Z,8.99
2023-02-03T08:03:07.975Z,9.00
2023-02-03T08:05:34.400Z,9.00
2023-02-03T08:08:00.812Z,9.01
2023-02-03T08:10:27.810Z,9.03
2023-02-03T08:12:55.791Z,9.03
2023-02-03T08:15:22.286Z,9.05
2023-02-03T08:17:49.715Z,9.05
2023-02-03T08:20:17.303Z,9.06
2023-02-03T08:22:44.094Z,9.07
2023-02-03T08:25:10.669Z,9.08
2023-02-03T08:27:37.945Z,9.11
2023-02-03T08:30:05.419Z,9.11
2023-02-03T08:32:33.450Z,9.13
2023-02-03T08:35:00.008Z,9.15
2023-02-03T08:37:26.539Z,9.15
2023-02-03T08:39:53.873Z,9.16
2023-02-03T08:42:20.444Z,9.17
2023-02-03T08:44:47.031Z,9.18
2023-02-03T08:47:13.561Z,9.19
2023-02-03T08:49:40.110Z,9.20
2023-02-03T08:52:08.088Z,9.22
2023-02-03T08:54:34.950Z,9.24
2023-02-03T08:57:01.483Z,9.27
2023-02-03T08:59:28.017Z,9.28
2023-02-03T09:01:55.038Z,9.30
2023-02-03T09:04:24.512Z,9.33
2023-02-03T09:06:54.549Z,9.34
2023-02-03T09:09:22.051Z,9.37
2023-02-03T09:11:48.621Z,9.39
2023-02-03T09:14:15.085Z,9.40
2023-02-03T09:16:41.561Z,9.43
2023-02-03T09:19:08.061Z,9.45
2023-02-03T09:21:40.252Z,9.47
2023-02-03T09:24:12.770Z,9.49
2023-02-03T09:26:39.255Z,9.50
2023-02-03T09:29:05.895Z,9.53
2023-02-03T09:31:32.384Z,9.54
2023-02-03T09:33:59.980Z,9.55
2023-02-03T09:36:26.633Z,9.55
2023-02-03T09:38:53.289Z,9.56
2023-02-03T09:41:44.334Z,9.57
2023-02-03T09:44:52.814Z,9.58
2023-02-03T09:47:24.990Z,9.59
2023-02-03T09:49:56.799Z,9.60
2023-02-03T09:52:25.107Z,9.61
2023-02-03T09:55:25.657Z,9.61
2023-02-03T09:58:25.035Z,9.61
2023-02-03T10:00:59.575Z,9.63
2023-02-03T10:03:48.008Z,9.65
2023-02-03T10:06:31.613Z,9.67
2023-02-03T10:09:27.266Z,9.69
2023-02-03T10:12:15.406Z,9.71
2023-02-03T10:15:05.721Z,9.73
2023-02-03T10:18:21.755Z,9.73
2023-02-03T10:20:53.339Z,9.76
2023-02-03T10:23:30.438Z,9.78
2023-02-03T10:25:59.109Z,9.79
2023-02-03T10:28:39.489Z,9.82
2023-02-03T10:31:19.251Z,9.83
2023-02-03T10:33:47.176Z,9.84
2023-02-03T10:36:22.039Z,9.86
2023-02-03T10:38:48.452Z,9.86
2023-02-03T10:41:18.065Z,9.87
2023-02-03T10:43:51.721Z,9.89
2023-02-03T10:46:30.664Z,9.91
2023-02-03T10:48:57.321Z,9.91
2023-02-03T10:51:25.713Z,9.94
2023-02-03T10:53:53.704Z,9.95
2023-02-03T10:56:27.029Z,9.97
2023-02-03T10:58:56.639Z,9.99
2023-02-03T11:01:26.400Z,10.00
2023-02-03T11:04:03.219Z,10.01
2023-02-03T11:06:31.397Z,10.01
2023-02-03T11:08:58.239Z,10.02
2023-02-03T11:11:31.562Z,10.00
2023-02-03T11:14:03.852Z,9.98
2023-02-03T11:16:33.498Z,9.99
2023-02-03T11:19:03.002Z,9.99
2023-02-03T11:21:32.138Z,10.00
2023-02-03T11:24:17.515Z,9.99
2023-02-03T11:26:53.964Z,9.99
2023-02-03T11:29:29.295Z,9.98
2023-02-03T11:31:58.368Z,9.98
2023-02-03T11:34:29.223Z,9.98
2023-02-03T11:36:55.783Z,9.99
2023-02-03T11:39:26.504Z,10.02
2023-02-03T11:41:53.767Z,10.04
2023-02-03T11:44:26.331Z,10.04
2023-02-03T11:47:17.701Z,10.04
2023-02-03T11:50:06.299Z,10.04
2023-02-03T11:52:47.795Z,10.05
2023-02-03T11:55:32.788Z,10.08
2023-02-03T11:58:10.764Z,10.07
2023-02-03T12:00:51.937Z,10.05
2023-02-03T12:03:57.811Z,10.04
2023-02-03T12:06:33.630Z,10.04
2023-02-03T12:09:25.647Z,10.02
2023-02-03T12:12:19.760Z,9.99
2023-02-03T12:15:05.579Z,9.93
2023-02-03T12:17:47.164Z,9.88
2023-02-03T12:20:43.128Z,9.85
2023-02-03T12:23:38.712Z,9.85
2023-02-03T12:26:24.064Z,9.84
2023-02-03T12:28:56.368Z,9.81
2023-02-03T12:31:33.685Z,9.76
2023-02-03T12:34:06.276Z,9.72
2023-02-03T12:36:39.964Z,9.71
2023-02-03T12:39:25.497Z,9.67
2023-02-03T12:42:01.757Z,9.65
2023-02-03T12:44:59.409Z,9.59
2023-02-03T12:47:25.849Z,9.55
2023-02-03T12:50:07.080Z,9.52
2023-02-03T12:52:42.032Z,9.51
2023-02-03T12:55:32.458Z,9.50
2023-02-03T12:58:03.131Z,9.48
2023-02-03T13:00:48.050Z,9.48
2023-02-03T13:03:39.442Z,9.49
2023-02-03T13:06:22.473Z,9.51
2023-02-03T13:09:01.515Z,9.52
2023-02-03T13:11:37.453Z,9.53
2023-02-03T13:14:15.392Z,9.55
2023-02-03T13:16:45.833Z,9.56
2023-02-03T13:19:29.188Z,9.60
2023-02-03T13:21:55.621Z,9.61
2023-02-03T13:24:26.378Z,9.62
2023-02-03T13:27:28.386Z,9.61
2023-02-03T13:30:12.104Z,9.64
2023-02-03T13:33:30.866Z,9.62
2023-02-03T13:36:06.019Z,9.64
2023-02-03T13:38:44.817Z,9.67
2023-02-03T13:41:46.216Z,9.68
2023-02-03T13:44:16.672Z,9.67
2023-02-03T13:46:46.971Z,9.68
2023-02-03T13:49:24.518Z,9.67
2023-02-03T13:51:51.401Z,9.66
2023-02-03T13:54:27.646Z,9.66
2023-02-03T13:57:00.056Z,9.66
2023-02-03T13:59:31.917Z,9.65
2023-02-03T14:02:19.968Z,9.65
2023-02-03T14:04:46.623Z,9.63
2023-02-03T14:07:34.959Z,9.61
2023-02-03T14:10:16.092Z,9.62
2023-02-03T14:12:51.478Z,9.65
2023-02-03T14:15:26.273Z,9.68
2023-02-03T14:17:52.922Z,9.67
2023-02-03T14:20:25.233Z,9.67
2023-02-03T14:23:06.850Z,9.65
2023-02-03T14:25:58.740Z,9.61
2023-02-03T14:28:38.966Z,9.60
2023-02-03T14:31:22.842Z,9.61
2023-02-03T14:33:51.263Z,9.59
2023-02-03T14:36:36.061Z,9.57
2023-02-03T14:39:24.122Z,9.57
2023-02-03T14:42:03.677Z,9.56
2023-02-03T14:45:04.300Z,9.56
2023-02-03T14:47:33.700Z,9.54
2023-02-03T14:50:15.368Z,9.52
2023-02-03T14:53:23.354Z,9.50
2023-02-03T14:56:13.544Z,9.49
2023-02-03T14:58:48.965Z,9.49
2023-02-03T15:01:37.110Z,9.47
2023-02-03T15:04:12.642Z,9.44
2023-02-03T15:06:45.293Z,9.43
2023-02-03T15:09:36.883Z,9.43
2023-02-03T15:12:15.769Z,9.39
2023-02-03T15:14:42.211Z,9.36
2023-02-03T15:17:26.867Z,9.35
2023-02-03T15:19:54.398Z,9.35
2023-02-03T15:22:23.735Z,9.34
2023-02-03T15:24:56.204Z,9.34
2023-02-03T15:27:28.247Z,9.32
2023-02-03T15:29:57.327Z,9.32
2023-02-03T15:32:27.964Z,9.30
2023-02-03T15:34:58.208Z,9.30
2023-02-03T15:37:37.459Z,9.27
2023-02-03T15:40:35.582Z,9.26
2023-02-03T15:43:09.064Z,9.25
2023-02-03T15:45:49.235Z,9.25
2023-02-03T15:48:23.809Z,9.24
2023-02-03T15:50:55.493Z,9.23
2023-02-03T15:53:46.935Z,9.20
2023-02-03T15:56:21.914Z,9.20
2023-02-03T15:58:49.517Z,9.18
2023-02-03T16:01:23.672Z,9.15
2023-02-03T16:03:52.833Z,9.15
2023-02-03T16:06:28.301Z,9.11
2023-02-03T16:08:55.476Z,9.08
2023-02-03T16:11:29.544Z,9.07
2023-02-03T16:13:57.692Z,9.06
2023-02-03T16:16:37.913Z,9.02
2023-02-03T16:19:12.487Z,9.00
2023-02-03T16:21:59.796Z,8.98
2023-02-03T16:24:32.349Z,8.96
2023-02-03T16:27:27.041Z,8.93
2023-02-03T16:30:25.252Z,8.91
2023-02-03T16:33:28.481Z,8.87
2023-02-03T16:36:14.591Z,8.86
2023-02-03T16:39:09.237Z,8.84
2023-02-03T16:41:56.301Z,8.83
2023-02-03T16:44:41.707Z,8.81
2023-02-03T16:47:43.530Z,8.81
2023-02-03T16:50:39.556Z,8.79
2023-02-03T16:53:12.500Z,8.78
2023-02-03T16:55:39.383Z,8.76
2023-02-03T16:58:06.033Z,8.73
2023-02-03T17:00:32.822Z,8.72
2023-02-03T17:03:03.535Z,8.71
2023-02-03T17:05:30.270Z,8.69
2023-02-03T17:07:56.946Z,8.68
2023-02-03T17:10:23.445Z,8.66
2023-02-03T17:12:51.871Z,8.65
2023-02-03T17:15:18.437Z,8.65
2023-02-03T17:17:46.056Z,8.63
2023-02-03T17:20:12.890Z,8.63
2023-02-03T17:22:39.345Z,8.62
2023-02-03T17:25:06.127Z,8.61
2023-02-03T17:27:32.604Z,8.60
2023-02-03T17:29:59.065Z,8.59
2023-02-03T17:32:25.565Z,8.57
2023-02-03T17:34:52.016Z,8.56
2023-02-03T17:37:18.482Z,8.55
2023-02-03T17:53:24.871Z,8.42
2023-02-03T17:55:51.338Z,8.41
2023-02-03T17:58:17.773Z,8.38
2023-02-03T18:00:44.354Z,8.36
2023-02-03T18:03:10.775Z,8.33
2023-02-03T18:05:38.287Z,8.33
2023-02-03T18:08:12.364Z,8.31
2023-02-03T18:10:43.378Z,8.32
2023-02-03T18:13:09.867Z,8.30
2023-02-03T18:15:38.512Z,8.28
2023-02-03T18:18:05.088Z,8.26
2023-02-03T18:20:31.648Z,8.25
2023-02-03T18:22:58.210Z,8.24
2023-02-03T18:25:24.628Z,8.24
2023-02-03T18:27:52.238Z,8.24
2023-02-03T18:30:21.607Z,8.24
2023-02-03T18:32:52.523Z,8.24
2023-02-03T18:35:19.194Z,8.26
2023-02-03T18:37:45.747Z,8.26
2023-02-03T18:40:12.480Z,8.27
2023-02-03T18:42:39.034Z,8.27
2023-02-03T18:45:06.461Z,8.29
2023-02-03T18:47:33.624Z,8.31
2023-02-03T18:50:00.120Z,8.32
2023-02-03T18:52:27.419Z,8.31
2023-02-03T18:54:53.923Z,8.33
2023-02-03T18:57:22.572Z,8.34
2023-02-03T18:59:49.403Z,8.31
2023-02-03T19:02:15.901Z,8.31
2023-02-03T19:04:42.345Z,8.33
2023-02-03T19:07:08.794Z,8.32
2023-02-03T19:09:35.429Z,8.31
2023-02-03T19:12:03.015Z,8.30
2023-02-03T19:14:29.808Z,8.29
2023-02-03T19:16:56.400Z,8.31
2023-02-03T19:19:22.867Z,8.28
2023-02-03T19:21:51.779Z,8.27
2023-02-03T19:24:19.367Z,8.26
2023-02-03T19:26:46.458Z,8.25
2023-02-03T19:29:12.915Z,8.24
2023-02-03T19:31:39.548Z,8.22
2023-02-03T19:34:06.013Z,8.22
2023-02-03T19:36:32.463Z,8.20
2023-02-03T19:38:58.873Z,8.21
2023-02-03T19:41:26.267Z,8.19
2023-02-03T19:43:52.765Z,8.19
2023-02-03T19:46:21.644Z,8.19
2023-02-03T19:48:48.705Z,8.20
2023-02-03T19:51:15.221Z,8.21
2023-02-03T19:53:41.673Z,8.21
2023-02-03T19:56:08.115Z,8.20
2023-02-03T19:58:34.623Z,8.20
2023-02-03T20:01:01.038Z,8.20
2023-02-03T20:03:27.450Z,8.21
2023-02-03T20:05:54.269Z,8.21
2023-02-03T20:08:20.742Z,8.21
2023-02-03T20:10:47.272Z,8.20
2023-02-03T20:13:14.090Z,8.21
2023-02-03T20:15:40.839Z,8.21
2023-02-03T20:18:07.951Z,8.20
2023-02-03T20:20:35.193Z,8.21
2023-02-03T20:23:01.673Z,8.19
2023-02-03T20:25:28.147Z,8.19
2023-02-03T20:27:56.969Z,8.20
2023-02-03T20:30:23.670Z,8.19
2023-02-03T20:32:50.270Z,8.18
2023-02-03T20:35:17.341Z,8.18
2023-02-03T20:37:43.819Z,8.18
2023-02-03T20:40:16.797Z,8.18
2023-02-03T20:42:43.373Z,8.18
2023-02-03T20:45:13.901Z,8.18
2023-02-03T20:47:40.484Z,8.17
2023-02-03T20:50:40.524Z,8.18
2023-02-03T20:53:13.590Z,8.19
2023-02-03T20:55:40.054Z,8.19
2023-02-03T20:58:39.985Z,8.19
2023-02-03T21:01:20.774Z,8.19
2023-02-03T21:04:07.345Z,8.17
2023-02-03T21:06:35.169Z,8.17
2023-02-03T21:09:14.181Z,8.17
2023-02-03T21:11:41.151Z,8.17
2023-02-03T21:14:29.562Z,8.16
2023-02-03T21:16:56.088Z,8.18
2023-02-03T21:19:33.683Z,8.17
2023-02-03T21:22:14.851Z,8.17
2023-02-03T21:24:45.493Z,8.17
2023-02-03T21:27:33.065Z,8.17
2023-02-03T21:30:03.262Z,8.17
2023-02-03T21:32:40.152Z,8.16
2023-02-03T21:35:29.810Z,8.17
2023-02-03T21:38:04.280Z,8.16
2023-02-03T21:40:35.004Z,8.16
2023-02-03T21:43:03.354Z,8.18
2023-02-03T21:45:42.874Z,8.18
2023-02-03T21:48:32.030Z,8.17
2023-02-03T21:51:04.754Z,8.17
2023-02-03T21:53:35.892Z,8.15
2023-02-03T21:56:17.015Z,8.16
2023-02-03T21:58:44.835Z,8.16
2023-02-03T22:01:16.476Z,8.16
2023-02-03T22:03:50.188Z,8.17
2023-02-03T22:06:19.485Z,8.16
2023-02-03T22:08:51.455Z,8.15
2023-02-03T22:11:19.507Z,8.14
2023-02-03T22:13:47.335Z,8.14
2023-02-03T22:16:17.053Z,8.15
2023-02-03T22:18:45.117Z,8.13
2023-02-03T22:21:11.754Z,8.13
2023-02-03T22:23:39.134Z,8.12
2023-02-03T22:26:06.939Z,8.09
2023-02-03T22:28:34.122Z,8.09
2023-02-03T22:31:01.093Z,8.06
2023-02-03T22:33:27.595Z,8.06
2023-02-03T22:35:54.029Z,8.04
2023-02-03T22:38:20.485Z,8.04
2023-02-03T22:40:46.954Z,8.04
2023-02-03T22:43:13.438Z,8.02
2023-02-03T22:45:39.958Z,8.00
2023-02-03T22:48:06.732Z,7.99
2023-02-03T22:50:36.803Z,8.00
2023-02-03T22:53:04.684Z,8.00
2023-02-03T22:55:31.565Z,7.98
2023-02-03T22:57:59.119Z,7.99
2023-02-03T23:00:26.153Z,7.98
2023-02-03T23:02:52.653Z,7.97
2023-02-03T23:05:19.683Z,7.95
2023-02-03T23:07:46.708Z,7.97
2023-02-03T23:10:19.458Z,7.96
2023-02-03T23:12:45.988Z,7.94
2023-02-03T23:15:13.324Z,7.93
2023-02-03T23:17:40.266Z,7.92
2023-02-03T23:20:08.046Z,7.90
2023-02-03T23:22:34.910Z,7.90
2023-02-03T23:25:02.494Z,7.90
2023-02-03T23:27:28.980Z,7.89
2023-02-03T23:29:55.470Z,7.88
2023-02-03T23:32:22.011Z,7.88
2023-02-03T23:35:06.769Z,7.87
2023-02-03T23:37:33.331Z,7.87
2023-02-03T23:40:00.405Z,7.88
2023-02-03T23:42:26.983Z,7.89
2023-02-03T23:44:53.400Z,7.87
2023-02-03T23:47:19.841Z,7.85
2023-02-03T23:49:46.285Z,7.85
2023-02-03T23:52:12.760Z,7.84
2023-02-03T23:54:39.271Z,7.86
2023-02-03T23:57:05.786Z,7.85
2023-02-03T23:59:32.201Z,7.84
